sensor_id;sensor_type;location;lat;lon;timestamp;temperature;humidity
4695;DHT22;2361;49.540;8.390;2023-02-26T00:01:40;2.50;99.90
4695;DHT22;2361;49.540;8.390;2023-02-26T00:04:08;2.60;99.90
4695;DHT22;2361;49.540;8.390;2023-02-26T00:06:37;2.60;99.90
4695;DHT22;2361;49.540;8.390;2023-02-26T00:09:18;2.60;99.90
4695;DHT22;2361;49.540;8.390;2023-02-26T00:11:45;2.60;99.90
4695;DHT22;2361;49.540;8.390;2023-02-26T00:14:14;2.60;99.90
4695;DHT22;2361;49.540;8.390;2023-02-26T00:16:44;2.60;99.90
4695;DHT22;2361;49.540;8.390;2023-02-26T00:19:13;2.60;99.90
4695;DHT22;2361;49.540;8.390;2023-02-26T00:21:41;2.50;99.90
4695;DHT22;2361;49.540;8.390;2023-02-26T00:24:10;2.50;99.90
4695;DHT22;2361;49.540;8.390;2023-02-26T00:26:38;2.50;99.90
4695;DHT22;2361;49.540;8.390;2023-02-26T00:29:05;2.50;99.90
4695;DHT22;2361;49.540;8.390;2023-02-26T00:31:33;2.50;99.90
4695;DHT22;2361;49.540;8.390;2023-02-26T00:34:00;2.50;99.90
4695;DHT22;2361;49.540;8.390;2023-02-26T00:42:04;2.40;99.90
4695;DHT22;2361;49.540;8.390;2023-02-26T00:44:32;2.40;99.90
4695;DHT22;2361;49.540;8.390;2023-02-26T00:52:56;2.30;99.90
4695;DHT22;2361;49.540;8.390;2023-02-26T00:55:33;2.30;99.90
4695;DHT22;2361;49.540;8.390;2023-02-26T00:58:00;2.30;99.90
4695;DHT22;2361;49.540;8.390;2023-02-26T01:00:27;2.30;99.90
4695;DHT22;2361;49.540;8.390;2023-02-26T01:02:55;2.30;99.90
4695;DHT22;2361;49.540;8.390;2023-02-26T01:05:23;2.20;99.90
4695;DHT22;2361;49.540;8.390;2023-02-26T01:08:11;2.20;99.90
4695;DHT22;2361;49.540;8.390;2023-02-26T01:10:38;2.20;99.90
4695;DHT22;2361;49.540;8.390;2023-02-26T01:13:06;2.10;99.90
4695;DHT22;2361;49.540;8.390;2023-02-26T01:15:34;2.10;99.90
4695;DHT22;2361;49.540;8.390;2023-02-26T01:18:15;2.00;99.90
4695;DHT22;2361;49.540;8.390;2023-02-26T01:20:58;2.10;99.90
4695;DHT22;2361;49.540;8.390;2023-02-26T01:23:32;2.10;99.90
4695;DHT22;2361;49.540;8.390;2023-02-26T01:26:10;2.10;99.90
4695;DHT22;2361;49.540;8.390;2023-02-26T01:28:41;2.00;99.90
4695;DHT22;2361;49.540;8.390;2023-02-26T01:31:18;2.10;99.90
4695;DHT22;2361;49.540;8.390;2023-02-26T01:34:02;2.10;99.90
4695;DHT22;2361;49.540;8.390;2023-02-26T01:36:40;2.00;99.90
4695;DHT22;2361;49.540;8.390;2023-02-26T01:42:12;2.00;99.90
4695;DHT22;2361;49.540;8.390;2023-02-26T01:45:02;2.00;99.90
4695;DHT22;2361;49.540;8.390;2023-02-26T01:48:02;2.00;99.90
4695;DHT22;2361;49.540;8.390;2023-02-26T01:50:38;2.00;99.90
4695;DHT22;2361;49.540;8.390;2023-02-26T01:53:21;2.00;99.90
4695;DHT22;2361;49.540;8.390;2023-02-26T01:56:11;2.00;99.90
4695;DHT22;2361;49.540;8.390;2023-02-26T01:58:41;2.00;99.90
4695;DHT22;2361;49.540;8.390;2023-02-26T02:01:07;2.00;99.90
4695;DHT22;2361;49.540;8.390;2023-02-26T02:03:37;2.00;99.90
4695;DHT22;2361;49.540;8.390;2023-02-26T02:06:13;2.00;99.90
4695;DHT22;2361;49.540;8.390;2023-02-26T02:08:43;2.00;99.90
4695;DHT22;2361;49.540;8.390;2023-02-26T02:11:11;2.00;99.90
4695;DHT22;2361;49.540;8.390;2023-02-26T02:31:12;2.10;99.90
4695;DHT22;2361;49.540;8.390;2023-02-26T02:33:51;2.10;99.90
4695;DHT22;2361;49.540;8.390;2023-02-26T02:36:32;2.00;99.90
4695;DHT22;2361;49.540;8.390;2023-02-26T02:39:30;2.10;99.90
4695;DHT22;2361;49.540;8.390;2023-02-26T02:42:17;2.10;99.90
4695;DHT22;2361;49.540;8.390;2023-02-26T02:44:51;2.10;99.90
4695;DHT22;2361;49.540;8.390;2023-02-26T02:47:22;2.00;99.90
4695;DHT22;2361;49.540;8.390;2023-02-26T02:50:07;2.00;99.90
4695;DHT22;2361;49.540;8.390;2023-02-26T02:52:53;1.90;99.90
4695;DHT22;2361;49.540;8.390;2023-02-26T02:55:35;1.90;99.90
4695;DHT22;2361;49.540;8.390;2023-02-26T02:58:07;1.90;99.90
4695;DHT22;2361;49.540;8.390;2023-02-26T03:00:41;1.90;99.90
4695;DHT22;2361;49.540;8.390;2023-02-26T03:05:50;1.80;99.90
4695;DHT22;2361;49.540;8.390;2023-02-26T03:08:21;1.80;99.90
4695;DHT22;2361;49.540;8.390;2023-02-26T03:10:50;1.80;99.90
4695;DHT22;2361;49.540;8.390;2023-02-26T03:13:22;1.80;99.90
4695;DHT22;2361;49.540;8.390;2023-02-26T03:27:42;1.60;99.90
4695;DHT22;2361;49.540;8.390;2023-02-26T03:30:37;1.50;99.90
4695;DHT22;2361;49.540;8.390;2023-02-26T03:36:03;1.50;99.90
4695;DHT22;2361;49.540;8.390;2023-02-26T03:38:48;1.50;99.90
4695;DHT22;2361;49.540;8.390;2023-02-26T03:44:04;1.50;99.90
4695;DHT22;2361;49.540;8.390;2023-02-26T03:46:47;1.50;99.90
4695;DHT22;2361;49.540;8.390;2023-02-26T03:49:23;1.40;99.90
4695;DHT22;2361;49.540;8.390;2023-02-26T03:51:53;1.40;99.90
4695;DHT22;2361;49.540;8.390;2023-02-26T03:54:28;1.40;99.90
4695;DHT22;2361;49.540;8.390;2023-02-26T03:56:57;1.40;99.90
4695;DHT22;2361;49.540;8.390;2023-02-26T03:59:24;1.40;99.90
4695;DHT22;2361;49.540;8.390;2023-02-26T04:02:15;1.40;99.90
4695;DHT22;2361;49.540;8.390;2023-02-26T04:04:55;1.30;99.90
4695;DHT22;2361;49.540;8.390;2023-02-26T04:07:25;1.30;99.90
4695;DHT22;2361;49.540;8.390;2023-02-26T04:09:52;1.40;99.90
4695;DHT22;2361;49.540;8.390;2023-02-26T04:12:21;1.40;99.90
4695;DHT22;2361;49.540;8.390;2023-02-26T04:14:50;1.40;99.90
4695;DHT22;2361;49.540;8.390;2023-02-26T04:17:17;1.30;99.90
4695;DHT22;2361;49.540;8.390;2023-02-26T04:19:44;1.40;99.90
4695;DHT22;2361;49.540;8.390;2023-02-26T04:22:11;1.30;99.90
4695;DHT22;2361;49.540;8.390;2023-02-26T04:24:38;1.30;99.90
4695;DHT22;2361;49.540;8.390;2023-02-26T04:27:05;1.30;99.90
4695;DHT22;2361;49.540;8.390;2023-02-26T04:29:33;1.20;99.90
4695;DHT22;2361;49.540;8.390;2023-02-26T04:32:00;1.20;99.90
4695;DHT22;2361;49.540;8.390;2023-02-26T04:34:27;1.20;99.90
4695;DHT22;2361;49.540;8.390;2023-02-26T04:36:54;1.20;99.90
4695;DHT22;2361;49.540;8.390;2023-02-26T04:39:22;1.20;99.90
4695;DHT22;2361;49.540;8.390;2023-02-26T04:41:49;1.10;99.90
4695;DHT22;2361;49.540;8.390;2023-02-26T04:44:16;1.10;99.90
4695;DHT22;2361;49.540;8.390;2023-02-26T04:46:43;1.10;99.90
4695;DHT22;2361;49.540;8.390;2023-02-26T04:49:19;1.10;99.90
4695;DHT22;2361;49.540;8.390;2023-02-26T04:51:53;1.10;99.90
4695;DHT22;2361;49.540;8.390;2023-02-26T04:54:25;1.10;99.90
4695;DHT22;2361;49.540;8.390;2023-02-26T04:56:52;1.10;99.90
4695;DHT22;2361;49.540;8.390;2023-02-26T04:59:19;1.10;99.90
4695;DHT22;2361;49.540;8.390;2023-02-26T05:01:49;1.10;99.90
4695;DHT22;2361;49.540;8.390;2023-02-26T05:04:15;1.10;99.90
4695;DHT22;2361;49.540;8.390;2023-02-26T05:06:43;1.10;99.90
4695;DHT22;2361;49.540;8.390;2023-02-26T05:09:12;1.00;99.90
4695;DHT22;2361;49.540;8.390;2023-02-26T05:11:42;1.00;99.90
4695;DHT22;2361;49.540;8.390;2023-02-26T05:14:09;1.00;99.90
4695;DHT22;2361;49.540;8.390;2023-02-26T05:16:39;1.00;99.90
4695;DHT22;2361;49.540;8.390;2023-02-26T05:19:06;1.00;99.90
4695;DHT22;2361;49.540;8.390;2023-02-26T05:21:33;0.90;99.90
4695;DHT22;2361;49.540;8.390;2023-02-26T05:24:00;0.90;99.90
4695;DHT22;2361;49.540;8.390;2023-02-26T05:26:27;0.90;99.90
4695;DHT22;2361;49.540;8.390;2023-02-26T05:28:54;0.90;99.90
4695;DHT22;2361;49.540;8.390;2023-02-26T05:31:21;0.90;99.90
4695;DHT22;2361;49.540;8.390;2023-02-26T05:33:48;0.90;99.90
4695;DHT22;2361;49.540;8.390;2023-02-26T05:36:15;0.80;99.90
4695;DHT22;2361;49.540;8.390;2023-02-26T05:38:42;0.80;99.90
4695;DHT22;2361;49.540;8.390;2023-02-26T05:41:08;0.80;99.90
4695;DHT22;2361;49.540;8.390;2023-02-26T05:43:36;0.80;99.90
4695;DHT22;2361;49.540;8.390;2023-02-26T05:46:03;0.80;99.90
4695;DHT22;2361;49.540;8.390;2023-02-26T05:48:30;0.80;99.90
4695;DHT22;2361;49.540;8.390;2023-02-26T05:50:56;0.70;99.90
4695;DHT22;2361;49.540;8.390;2023-02-26T05:53:26;0.70;99.90
4695;DHT22;2361;49.540;8.390;2023-02-26T05:55:53;0.70;99.90
4695;DHT22;2361;49.540;8.390;2023-02-26T05:58:20;0.70;99.90
4695;DHT22;2361;49.540;8.390;2023-02-26T06:00:47;0.70;99.90
4695;DHT22;2361;49.540;8.390;2023-02-26T06:03:14;0.70;99.90
4695;DHT22;2361;49.540;8.390;2023-02-26T06:05:50;0.60;99.90
4695;DHT22;2361;49.540;8.390;2023-02-26T06:08:22;0.70;99.90
4695;DHT22;2361;49.540;8.390;2023-02-26T06:10:49;0.60;99.90
4695;DHT22;2361;49.540;8.390;2023-02-26T06:13:17;0.70;99.90
4695;DHT22;2361;49.540;8.390;2023-02-26T06:15:44;0.70;99.90
4695;DHT22;2361;49.540;8.390;2023-02-26T06:18:14;0.70;99.90
4695;DHT22;2361;49.540;8.390;2023-02-26T06:20:41;0.60;99.90
4695;DHT22;2361;49.540;8.390;2023-02-26T06:23:08;0.70;99.90
4695;DHT22;2361;49.540;8.390;2023-02-26T06:25:35;0.70;99.90
4695;DHT22;2361;49.540;8.390;2023-02-26T06:28:02;0.60;99.90
4695;DHT22;2361;49.540;8.390;2023-02-26T06:30:29;0.70;99.90
4695;DHT22;2361;49.540;8.390;2023-02-26T06:32:56;0.80;99.90
4695;DHT22;2361;49.540;8.390;2023-02-26T06:35:23;0.80;99.90
4695;DHT22;2361;49.540;8.390;2023-02-26T06:37:50;0.70;99.90
4695;DHT22;2361;49.540;8.390;2023-02-26T06:40:17;0.70;99.90
4695;DHT22;2361;49.540;8.390;2023-02-26T06:42:44;0.80;99.90
4695;DHT22;2361;49.540;8.390;2023-02-26T06:45:11;0.80;99.90
4695;DHT22;2361;49.540;8.390;2023-02-26T06:47:38;0.90;99.90
4695;DHT22;2361;49.540;8.390;2023-02-26T06:50:06;1.20;99.90
4695;DHT22;2361;49.540;8.390;2023-02-26T06:52:33;1.50;99.90
4695;DHT22;2361;49.540;8.390;2023-02-26T06:55:01;1.90;99.90
4695;DHT22;2361;49.540;8.390;2023-02-26T06:57:29;2.50;99.90
4695;DHT22;2361;49.540;8.390;2023-02-26T06:59:56;3.10;99.90
4695;DHT22;2361;49.540;8.390;2023-02-26T07:02:23;3.80;99.90
4695;DHT22;2361;49.540;8.390;2023-02-26T07:04:50;4.50;99.90
4695;DHT22;2361;49.540;8.390;2023-02-26T07:07:17;5.00;99.90
4695;DHT22;2361;49.540;8.390;2023-02-26T07:09:44;5.60;99.90
4695;DHT22;2361;49.540;8.390;2023-02-26T07:12:12;6.00;99.90
4695;DHT22;2361;49.540;8.390;2023-02-26T07:14:39;6.50;99.90
4695;DHT22;2361;49.540;8.390;2023-02-26T07:17:06;6.80;99.90
4695;DHT22;2361;49.540;8.390;2023-02-26T07:19:33;7.20;99.90
4695;DHT22;2361;49.540;8.390;2023-02-26T07:22:00;7.30;99.70
4695;DHT22;2361;49.540;8.390;2023-02-26T07:24:27;6.80;99.90
4695;DHT22;2361;49.540;8.390;2023-02-26T07:26:54;6.30;99.90
4695;DHT22;2361;49.540;8.390;2023-02-26T07:29:21;6.20;99.90
4695;DHT22;2361;49.540;8.390;2023-02-26T07:31:48;6.10;99.90
4695;DHT22;2361;49.540;8.390;2023-02-26T07:34:15;6.30;99.90
4695;DHT22;2361;49.540;8.390;2023-02-26T07:36:42;6.70;99.90
4695;DHT22;2361;49.540;8.390;2023-02-26T07:39:09;7.40;99.90
4695;DHT22;2361;49.540;8.390;2023-02-26T07:41:37;8.20;97.60
4695;DHT22;2361;49.540;8.390;2023-02-26T07:44:04;9.00;95.70
4695;DHT22;2361;49.540;8.390;2023-02-26T07:46:31;10.00;93.50
4695;DHT22;2361;49.540;8.390;2023-02-26T07:48:58;10.10;91.00
4695;DHT22;2361;49.540;8.390;2023-02-26T07:51:25;9.50;91.00
4695;DHT22;2361;49.540;8.390;2023-02-26T07:53:52;8.30;92.30
4695;DHT22;2361;49.540;8.390;2023-02-26T07:56:19;7.20;94.40
4695;DHT22;2361;49.540;8.390;2023-02-26T07:58:46;6.10;96.80
4695;DHT22;2361;49.540;8.390;2023-02-26T08:01:14;5.20;99.40
4695;DHT22;2361;49.540;8.390;2023-02-26T08:03:40;4.70;99.90
4695;DHT22;2361;49.540;8.390;2023-02-26T08:06:08;4.30;99.90
4695;DHT22;2361;49.540;8.390;2023-02-26T08:08:35;4.00;99.90
4695;DHT22;2361;49.540;8.390;2023-02-26T08:11:02;3.70;99.90
4695;DHT22;2361;49.540;8.390;2023-02-26T08:13:29;3.50;99.90
4695;DHT22;2361;49.540;8.390;2023-02-26T08:15:56;3.40;99.90
4695;DHT22;2361;49.540;8.390;2023-02-26T08:18:23;3.20;99.90
4695;DHT22;2361;49.540;8.390;2023-02-26T08:20:50;3.20;99.90
4695;DHT22;2361;49.540;8.390;2023-02-26T08:23:18;3.10;99.90
4695;DHT22;2361;49.540;8.390;2023-02-26T08:25:45;2.90;99.90
4695;DHT22;2361;49.540;8.390;2023-02-26T08:28:12;3.00;99.90
4695;DHT22;2361;49.540;8.390;2023-02-26T08:30:39;3.00;99.90
4695;DHT22;2361;49.540;8.390;2023-02-26T08:33:06;3.10;99.90
4695;DHT22;2361;49.540;8.390;2023-02-26T08:35:33;3.10;99.90
4695;DHT22;2361;49.540;8.390;2023-02-26T08:38:00;3.10;99.90
4695;DHT22;2361;49.540;8.390;2023-02-26T08:40:27;3.10;99.90
4695;DHT22;2361;49.540;8.390;2023-02-26T08:42:55;3.00;99.90
4695;DHT22;2361;49.540;8.390;2023-02-26T08:45:25;3.00;99.90
4695;DHT22;2361;49.540;8.390;2023-02-26T08:47:52;2.90;99.90
4695;DHT22;2361;49.540;8.390;2023-02-26T08:50:24;2.90;99.90
4695;DHT22;2361;49.540;8.390;2023-02-26T08:52:52;3.30;99.90
4695;DHT22;2361;49.540;8.390;2023-02-26T08:55:19;3.80;99.90
4695;DHT22;2361;49.540;8.390;2023-02-26T08:57:46;4.30;99.90
4695;DHT22;2361;49.540;8.390;2023-02-26T09:00:13;4.80;99.90
4695;DHT22;2361;49.540;8.390;2023-02-26T09:02:44;4.80;99.90
4695;DHT22;2361;49.540;8.390;2023-02-26T09:05:11;4.70;99.90
4695;DHT22;2361;49.540;8.390;2023-02-26T09:07:41;4.80;99.90
4695;DHT22;2361;49.540;8.390;2023-02-26T09:10:08;4.90;99.90
4695;DHT22;2361;49.540;8.390;2023-02-26T09:12:36;4.80;99.90
4695;DHT22;2361;49.540;8.390;2023-02-26T09:15:04;4.60;99.90
4695;DHT22;2361;49.540;8.390;2023-02-26T09:17:32;4.30;99.90
4695;DHT22;2361;49.540;8.390;2023-02-26T09:19:59;4.10;99.90
4695;DHT22;2361;49.540;8.390;2023-02-26T09:22:27;4.00;99.90
4695;DHT22;2361;49.540;8.390;2023-02-26T09:24:54;4.50;99.90
4695;DHT22;2361;49.540;8.390;2023-02-26T09:27:27;5.00;99.90
4695;DHT22;2361;49.540;8.390;2023-02-26T09:29:57;5.10;99.90
4695;DHT22;2361;49.540;8.390;2023-02-26T09:32:27;4.80;99.90
4695;DHT22;2361;49.540;8.390;2023-02-26T09:34:57;4.60;99.90
4695;DHT22;2361;49.540;8.390;2023-02-26T09:37:25;4.50;99.90
4695;DHT22;2361;49.540;8.390;2023-02-26T09:39:52;4.70;99.90
4695;DHT22;2361;49.540;8.390;2023-02-26T09:45:37;4.90;99.90
4695;DHT22;2361;49.540;8.390;2023-02-26T09:48:05;4.90;99.90
4695;DHT22;2361;49.540;8.390;2023-02-26T09:56:18;5.10;99.90
4695;DHT22;2361;49.540;8.390;2023-02-26T09:58:47;5.40;99.90
4695;DHT22;2361;49.540;8.390;2023-02-26T10:01:31;5.50;99.80
4695;DHT22;2361;49.540;8.390;2023-02-26T10:04:22;6.30;99.90
4695;DHT22;2361;49.540;8.390;2023-02-26T10:10:37;7.50;94.60
4695;DHT22;2361;49.540;8.390;2023-02-26T10:16:26;9.50;86.80
4695;DHT22;2361;49.540;8.390;2023-02-26T10:19:06;9.00;89.10
4695;DHT22;2361;49.540;8.390;2023-02-26T10:21:43;10.80;83.20
4695;DHT22;2361;49.540;8.390;2023-02-26T10:27:19;11.80;72.90
4695;DHT22;2361;49.540;8.390;2023-02-26T10:29:59;12.30;70.00
4695;DHT22;2361;49.540;8.390;2023-02-26T10:32:40;11.10;72.00
4695;DHT22;2361;49.540;8.390;2023-02-26T10:35:15;11.10;73.20
4695;DHT22;2361;49.540;8.390;2023-02-26T10:37:58;11.80;70.10
4695;DHT22;2361;49.540;8.390;2023-02-26T10:40:48;10.90;70.00
4695;DHT22;2361;49.540;8.390;2023-02-26T10:43:37;9.50;74.00
4695;DHT22;2361;49.540;8.390;2023-02-26T10:46:27;8.50;76.50
4695;DHT22;2361;49.540;8.390;2023-02-26T10:51:57;6.90;83.60
4695;DHT22;2361;49.540;8.390;2023-02-26T10:54:34;6.40;86.00
4695;DHT22;2361;49.540;8.390;2023-02-26T10:57:03;6.00;88.10
4695;DHT22;2361;49.540;8.390;2023-02-26T10:59:30;5.70;90.40
4695;DHT22;2361;49.540;8.390;2023-02-26T11:01:58;5.60;91.30
4695;DHT22;2361;49.540;8.390;2023-02-26T11:04:26;5.50;92.00
4695;DHT22;2361;49.540;8.390;2023-02-26T11:06:56;5.30;92.80
4695;DHT22;2361;49.540;8.390;2023-02-26T11:09:38;5.20;93.60
4695;DHT22;2361;49.540;8.390;2023-02-26T11:12:14;5.00;94.40
4695;DHT22;2361;49.540;8.390;2023-02-26T11:14:44;5.00;94.00
4695;DHT22;2361;49.540;8.390;2023-02-26T11:17:25;4.90;94.70
4695;DHT22;2361;49.540;8.390;2023-02-26T11:20:03;5.00;94.50
4695;DHT22;2361;49.540;8.390;2023-02-26T11:22:49;5.10;94.70
4695;DHT22;2361;49.540;8.390;2023-02-26T11:25:25;5.20;94.90
4695;DHT22;2361;49.540;8.390;2023-02-26T11:28:03;5.50;94.90
4695;DHT22;2361;49.540;8.390;2023-02-26T11:30:36;5.60;94.10
4695;DHT22;2361;49.540;8.390;2023-02-26T11:33:31;5.60;93.70
4695;DHT22;2361;49.540;8.390;2023-02-26T11:36:08;5.50;93.90
4695;DHT22;2361;49.540;8.390;2023-02-26T11:38:37;5.40;94.60
4695;DHT22;2361;49.540;8.390;2023-02-26T11:41:05;5.30;94.10
4695;DHT22;2361;49.540;8.390;2023-02-26T11:43:39;5.20;94.00
4695;DHT22;2361;49.540;8.390;2023-02-26T11:46:11;5.20;94.50
4695;DHT22;2361;49.540;8.390;2023-02-26T11:48:48;5.20;94.10
4695;DHT22;2361;49.540;8.390;2023-02-26T11:51:20;5.00;94.70
4695;DHT22;2361;49.540;8.390;2023-02-26T11:53:52;5.00;94.90
4695;DHT22;2361;49.540;8.390;2023-02-26T11:56:37;5.00;94.80
4695;DHT22;2361;49.540;8.390;2023-02-26T11:59:19;5.00;95.20
4695;DHT22;2361;49.540;8.390;2023-02-26T12:01:48;5.00;94.40
4695;DHT22;2361;49.540;8.390;2023-02-26T12:04:22;4.90;94.80
4695;DHT22;2361;49.540;8.390;2023-02-26T12:06:54;4.90;94.90
4695;DHT22;2361;49.540;8.390;2023-02-26T12:09:23;4.90;94.90
4695;DHT22;2361;49.540;8.390;2023-02-26T12:12:03;5.00;94.90
4695;DHT22;2361;49.540;8.390;2023-02-26T12:20:41;5.00;93.70
4695;DHT22;2361;49.540;8.390;2023-02-26T12:23:46;4.80;94.00
4695;DHT22;2361;49.540;8.390;2023-02-26T12:26:33;4.80;94.20
4695;DHT22;2361;49.540;8.390;2023-02-26T12:35:23;5.30;94.40
4695;DHT22;2361;49.540;8.390;2023-02-26T12:38:15;5.30;93.90
4695;DHT22;2361;49.540;8.390;2023-02-26T12:44:16;5.30;94.10
4695;DHT22;2361;49.540;8.390;2023-02-26T12:52:39;5.40;93.20
4695;DHT22;2361;49.540;8.390;2023-02-26T13:01:07;5.50;93.10
4695;DHT22;2361;49.540;8.390;2023-02-26T13:09:50;5.60;92.60
4695;DHT22;2361;49.540;8.390;2023-02-26T13:13:08;5.60;92.40
4695;DHT22;2361;49.540;8.390;2023-02-26T13:21:21;5.50;92.50
4695;DHT22;2361;49.540;8.390;2023-02-26T13:24:15;5.50;92.20
4695;DHT22;2361;49.540;8.390;2023-02-26T13:26:52;5.50;92.30
4695;DHT22;2361;49.540;8.390;2023-02-26T13:32:10;5.40;92.10
4695;DHT22;2361;49.540;8.390;2023-02-26T13:41:37;5.50;91.90
4695;DHT22;2361;49.540;8.390;2023-02-26T13:47:21;5.50;92.00
4695;DHT22;2361;49.540;8.390;2023-02-26T14:01:31;5.40;92.50
4695;DHT22;2361;49.540;8.390;2023-02-26T14:04:07;5.50;92.70
4695;DHT22;2361;49.540;8.390;2023-02-26T14:06:40;5.40;92.80
4695;DHT22;2361;49.540;8.390;2023-02-26T14:19:42;5.20;93.20
4695;DHT22;2361;49.540;8.390;2023-02-26T14:31:20;5.20;92.80
4695;DHT22;2361;49.540;8.390;2023-02-26T14:39:24;5.20;93.30
4695;DHT22;2361;49.540;8.390;2023-02-26T14:41:58;5.20;93.90
4695;DHT22;2361;49.540;8.390;2023-02-26T14:44:31;5.30;93.80
4695;DHT22;2361;49.540;8.390;2023-02-26T14:47:02;5.30;94.10
4695;DHT22;2361;49.540;8.390;2023-02-26T14:49:36;5.30;94.10
4695;DHT22;2361;49.540;8.390;2023-02-26T14:55:44;5.10;94.50
4695;DHT22;2361;49.540;8.390;2023-02-26T15:07:10;5.00;94.90
4695;DHT22;2361;49.540;8.390;2023-02-26T15:10:22;4.90;95.00
4695;DHT22;2361;49.540;8.390;2023-02-26T15:22:06;4.70;94.10
4695;DHT22;2361;49.540;8.390;2023-02-26T15:24:35;4.80;94.10
4695;DHT22;2361;49.540;8.390;2023-02-26T15:27:04;4.70;94.00
4695;DHT22;2361;49.540;8.390;2023-02-26T15:29:36;4.60;94.20
4695;DHT22;2361;49.540;8.390;2023-02-26T15:32:25;4.60;94.10
4695;DHT22;2361;49.540;8.390;2023-02-26T15:35:02;4.50;94.00
4695;DHT22;2361;49.540;8.390;2023-02-26T15:37:49;4.50;94.20
4695;DHT22;2361;49.540;8.390;2023-02-26T15:40:18;4.40;94.40
4695;DHT22;2361;49.540;8.390;2023-02-26T15:42:50;4.40;94.00
4695;DHT22;2361;49.540;8.390;2023-02-26T15:48:05;4.50;93.40
4695;DHT22;2361;49.540;8.390;2023-02-26T15:50:37;4.50;93.80
4695;DHT22;2361;49.540;8.390;2023-02-26T15:53:11;4.60;93.20
4695;DHT22;2361;49.540;8.390;2023-02-26T15:55:49;4.60;92.80
4695;DHT22;2361;49.540;8.390;2023-02-26T15:58:41;4.60;92.10
4695;DHT22;2361;49.540;8.390;2023-02-26T16:01:18;4.60;91.90
4695;DHT22;2361;49.540;8.390;2023-02-26T16:03:50;4.60;92.60
4695;DHT22;2361;49.540;8.390;2023-02-26T16:06:23;4.60;92.40
4695;DHT22;2361;49.540;8.390;2023-02-26T16:08:54;4.50;91.20
4695;DHT22;2361;49.540;8.390;2023-02-26T16:11:21;4.50;91.70
4695;DHT22;2361;49.540;8.390;2023-02-26T16:13:50;4.40;92.10
4695;DHT22;2361;49.540;8.390;2023-02-26T16:16:25;4.50;91.40
4695;DHT22;2361;49.540;8.390;2023-02-26T16:18:55;4.40;91.70
4695;DHT22;2361;49.540;8.390;2023-02-26T16:23:56;4.40;91.40
4695;DHT22;2361;49.540;8.390;2023-02-26T16:26:34;4.40;91.60
4695;DHT22;2361;49.540;8.390;2023-02-26T16:29:27;4.40;91.20
4695;DHT22;2361;49.540;8.390;2023-02-26T16:31:57;4.40;90.80
4695;DHT22;2361;49.540;8.390;2023-02-26T16:36:54;4.40;90.80
4695;DHT22;2361;49.540;8.390;2023-02-26T16:39:29;4.40;90.90
4695;DHT22;2361;49.540;8.390;2023-02-26T16:42:08;4.40;91.10
4695;DHT22;2361;49.540;8.390;2023-02-26T16:48:20;4.40;91.20
4695;DHT22;2361;49.540;8.390;2023-02-26T16:53:59;4.40;91.50
4695;DHT22;2361;49.540;8.390;2023-02-26T16:56:33;4.40;91.50
4695;DHT22;2361;49.540;8.390;2023-02-26T16:59:23;4.40;91.90
4695;DHT22;2361;49.540;8.390;2023-02-26T17:02:03;4.30;91.80
4695;DHT22;2361;49.540;8.390;2023-02-26T17:04:34;4.30;92.10
4695;DHT22;2361;49.540;8.390;2023-02-26T17:07:06;4.30;91.90
4695;DHT22;2361;49.540;8.390;2023-02-26T17:09:48;4.20;91.90
4695;DHT22;2361;49.540;8.390;2023-02-26T17:12:37;4.20;91.70
4695;DHT22;2361;49.540;8.390;2023-02-26T17:15:17;4.20;92.20
4695;DHT22;2361;49.540;8.390;2023-02-26T17:17:47;4.10;91.50
4695;DHT22;2361;49.540;8.390;2023-02-26T17:20:14;4.10;91.70
4695;DHT22;2361;49.540;8.390;2023-02-26T17:22:43;4.10;91.20
4695;DHT22;2361;49.540;8.390;2023-02-26T17:25:18;4.00;91.80
4695;DHT22;2361;49.540;8.390;2023-02-26T17:27:47;4.10;91.60
4695;DHT22;2361;49.540;8.390;2023-02-26T17:30:19;4.10;91.60
4695;DHT22;2361;49.540;8.390;2023-02-26T17:32:49;4.10;91.00
4695;DHT22;2361;49.540;8.390;2023-02-26T17:35:18;4.10;91.10
4695;DHT22;2361;49.540;8.390;2023-02-26T17:37:45;4.10;91.10
4695;DHT22;2361;49.540;8.390;2023-02-26T17:40:28;4.00;91.20
4695;DHT22;2361;49.540;8.390;2023-02-26T17:42:57;4.00;91.30
4695;DHT22;2361;49.540;8.390;2023-02-26T17:45:25;3.90;91.20
4695;DHT22;2361;49.540;8.390;2023-02-26T17:47:52;3.90;91.20
4695;DHT22;2361;49.540;8.390;2023-02-26T17:50:28;3.90;91.30
4695;DHT22;2361;49.540;8.390;2023-02-26T17:53:15;3.80;91.60
4695;DHT22;2361;49.540;8.390;2023-02-26T17:55:44;3.90;91.20
4695;DHT22;2361;49.540;8.390;2023-02-26T17:58:30;3.90;91.10
4695;DHT22;2361;49.540;8.390;2023-02-26T18:00:59;4.00;90.90
4695;DHT22;2361;49.540;8.390;2023-02-26T18:03:29;4.00;91.20
4695;DHT22;2361;49.540;8.390;2023-02-26T18:05:56;3.90;91.20
4695;DHT22;2361;49.540;8.390;2023-02-26T18:08:26;4.00;90.70
4695;DHT22;2361;49.540;8.390;2023-02-26T18:10:56;4.00;91.00
4695;DHT22;2361;49.540;8.390;2023-02-26T18:13:24;3.90;91.50
4695;DHT22;2361;49.540;8.390;2023-02-26T18:15:53;3.90;90.60
4695;DHT22;2361;49.540;8.390;2023-02-26T18:18:22;3.90;91.20
4695;DHT22;2361;49.540;8.390;2023-02-26T18:20:51;3.90;90.90
4695;DHT22;2361;49.540;8.390;2023-02-26T18:23:19;3.80;90.80
4695;DHT22;2361;49.540;8.390;2023-02-26T18:25:48;3.80;91.30
4695;DHT22;2361;49.540;8.390;2023-02-26T18:28:25;3.80;92.70
4695;DHT22;2361;49.540;8.390;2023-02-26T18:30:53;3.70;92.00
4695;DHT22;2361;49.540;8.390;2023-02-26T18:33:22;3.70;91.90
4695;DHT22;2361;49.540;8.390;2023-02-26T18:35:54;3.70;91.80
4695;DHT22;2361;49.540;8.390;2023-02-26T18:38:25;3.80;91.30
4695;DHT22;2361;49.540;8.390;2023-02-26T18:40:53;3.80;91.20
4695;DHT22;2361;49.540;8.390;2023-02-26T18:43:21;3.80;91.00
4695;DHT22;2361;49.540;8.390;2023-02-26T18:45:49;3.70;91.20
4695;DHT22;2361;49.540;8.390;2023-02-26T18:48:19;3.80;91.20
4695;DHT22;2361;49.540;8.390;2023-02-26T18:50:47;3.80;91.30
4695;DHT22;2361;49.540;8.390;2023-02-26T18:53:14;3.60;91.30
4695;DHT22;2361;49.540;8.390;2023-02-26T18:55:43;3.70;91.30
4695;DHT22;2361;49.540;8.390;2023-02-26T18:58:10;3.70;91.70
4695;DHT22;2361;49.540;8.390;2023-02-26T19:00:37;3.70;91.50
4695;DHT22;2361;49.540;8.390;2023-02-26T19:03:04;3.60;91.70
4695;DHT22;2361;49.540;8.390;2023-02-26T19:05:31;3.60;91.80
4695;DHT22;2361;49.540;8.390;2023-02-26T19:07:59;3.60;92.10
4695;DHT22;2361;49.540;8.390;2023-02-26T19:10:26;3.60;92.50
4695;DHT22;2361;49.540;8.390;2023-02-26T19:12:57;3.50;91.90
4695;DHT22;2361;49.540;8.390;2023-02-26T19:15:24;3.40;92.10
4695;DHT22;2361;49.540;8.390;2023-02-26T19:17:51;3.40;92.10
4695;DHT22;2361;49.540;8.390;2023-02-26T19:20:18;3.40;92.00
4695;DHT22;2361;49.540;8.390;2023-02-26T19:22:45;3.30;92.40
4695;DHT22;2361;49.540;8.390;2023-02-26T19:25:13;3.30;92.70
4695;DHT22;2361;49.540;8.390;2023-02-26T19:27:40;3.20;92.70
4695;DHT22;2361;49.540;8.390;2023-02-26T19:30:08;3.20;93.00
4695;DHT22;2361;49.540;8.390;2023-02-26T19:32:36;3.20;93.00
4695;DHT22;2361;49.540;8.390;2023-02-26T19:35:03;3.10;93.10
4695;DHT22;2361;49.540;8.390;2023-02-26T19:37:30;3.10;92.70
4695;DHT22;2361;49.540;8.390;2023-02-26T19:39:57;3.10;91.70
4695;DHT22;2361;49.540;8.390;2023-02-26T19:42:24;3.10;91.80
4695;DHT22;2361;49.540;8.390;2023-02-26T19:44:53;3.00;92.30
4695;DHT22;2361;49.540;8.390;2023-02-26T19:47:20;3.00;92.50
4695;DHT22;2361;49.540;8.390;2023-02-26T19:49:48;3.00;92.60
4695;DHT22;2361;49.540;8.390;2023-02-26T19:52:15;2.90;92.70
4695;DHT22;2361;49.540;8.390;2023-02-26T19:54:41;2.90;92.80
4695;DHT22;2361;49.540;8.390;2023-02-26T19:57:08;3.00;92.80
4695;DHT22;2361;49.540;8.390;2023-02-26T19:59:35;3.00;92.80
4695;DHT22;2361;49.540;8.390;2023-02-26T20:02:02;2.90;93.10
4695;DHT22;2361;49.540;8.390;2023-02-26T20:04:31;2.90;93.20
4695;DHT22;2361;49.540;8.390;2023-02-26T20:06:58;2.80;93.50